createdAt,value
2023-02-11T00:00:44.791Z,93.43
2023-02-11T00:03:11.277Z,93.93
2023-02-11T00:05:37.728Z,93.83
2023-02-11T00:08:04.440Z,93.78
2023-02-11T00:10:30.929Z,93.70
2023-02-11T00:12:57.478Z,93.61
2023-02-11T00:15:23.864Z,93.83
2023-02-11T00:17:50.328Z,93.96
2023-02-11T00:20:16.728Z,94.05
2023-02-11T00:22:43.924Z,93.89
2023-02-11T00:25:10.325Z,94.11
2023-02-11T00:27:37.604Z,94.00
2023-02-11T00:30:05.343Z,93.89
2023-02-11T00:32:31.765Z,93.72
2023-02-11T00:34:58.172Z,93.93
2023-02-11T00:37:24.557Z,94.14
2023-02-11T00:39:51.001Z,93.84
2023-02-11T00:42:17.432Z,94.13
2023-02-11T00:44:43.801Z,94.15
2023-02-11T00:47:10.309Z,94.37
2023-02-11T00:49:37.025Z,94.40
2023-02-11T00:52:03.963Z,94.23
2023-02-11T00:54:30.403Z,94.08
2023-02-11T00:56:59.184Z,94.02
2023-02-11T00:59:25.670Z,94.18
2023-02-11T01:01:52.119Z,94.31
2023-02-11T01:04:18.477Z,94.45
2023-02-11T01:06:44.915Z,94.22
2023-02-11T01:09:11.452Z,94.16
2023-02-11T01:11:37.862Z,94.43
2023-02-11T01:14:04.474Z,94.53
2023-02-11T01:16:30.877Z,94.67
2023-02-11T01:18:58.868Z,94.69
2023-02-11T01:21:25.757Z,94.64
2023-02-11T01:23:52.814Z,95.09
2023-02-11T01:26:19.457Z,94.71
2023-02-11T01:28:45.854Z,94.64
2023-02-11T01:31:12.337Z,94.84
2023-02-11T01:33:38.870Z,94.93
2023-02-11T01:36:06.832Z,94.76
2023-02-11T01:38:34.018Z,94.99
2023-02-11T01:41:03.255Z,95.18
2023-02-11T01:43:34.783Z,95.35
2023-02-11T01:46:20.260Z,95.18
2023-02-11T01:48:55.810Z,95.32
2023-02-11T01:51:27.413Z,95.01
2023-02-11T01:54:14.008Z,95.44
2023-02-11T01:57:05.162Z,95.06
2023-02-11T01:59:36.158Z,94.86
2023-02-11T02:02:08.552Z,94.75
2023-02-11T02:04:42.277Z,95.42
2023-02-11T02:07:14.552Z,95.20
2023-02-11T02:09:48.327Z,95.04
2023-02-11T02:12:14.786Z,95.30
2023-02-11T02:14:41.852Z,95.36
2023-02-11T02:17:24.931Z,95.37
2023-02-11T02:20:00.416Z,95.65
2023-02-11T02:22:52.712Z,95.54
2023-02-11T02:25:56.062Z,95.90
2023-02-11T02:28:58.484Z,95.87
2023-02-11T02:31:39.924Z,95.46
2023-02-11T02:34:19.330Z,95.75
2023-02-11T02:37:04.788Z,95.59
2023-02-11T02:39:35.943Z,96.12
2023-02-11T02:42:04.960Z,96.17
2023-02-11T02:44:32.461Z,96.15
2023-02-11T02:46:58.970Z,96.70
2023-02-11T02:49:25.446Z,96.51
2023-02-11T02:52:09.485Z,96.66
2023-02-11T02:54:51.076Z,96.72
2023-02-11T02:57:59.533Z,96.54
2023-02-11T03:00:51.634Z,97.19
2023-02-11T03:03:29.508Z,96.76
2023-02-11T03:06:13.272Z,96.50
2023-02-11T03:09:06.339Z,97.07
2023-02-11T03:11:35.990Z,96.75
2023-02-11T03:14:04.541Z,96.89
2023-02-11T03:16:37.943Z,96.69
2023-02-11T03:19:20.396Z,96.86
2023-02-11T03:21:49.171Z,97.00
2023-02-11T03:24:23.865Z,96.96
2023-02-11T03:26:53.941Z,96.84
2023-02-11T03:29:39.171Z,97.21
2023-02-11T03:32:17.693Z,97.53
2023-02-11T03:34:47.075Z,97.27
2023-02-11T03:37:31.786Z,97.37
2023-02-11T03:40:06.698Z,97.55
2023-02-11T03:42:39.960Z,97.62
2023-02-11T03:45:10.723Z,98.21
2023-02-11T03:47:39.910Z,97.84
2023-02-11T03:50:08.747Z,98.24
2023-02-11T03:52:37.981Z,97.80
2023-02-11T03:55:11.244Z,97.94
2023-02-11T03:57:38.113Z,98.32
2023-02-11T04:00:06.977Z,98.41
2023-02-11T04:02:34.844Z,98.17
2023-02-11T04:05:01.552Z,98.88
2023-02-11T04:07:28.220Z,98.78
2023-02-11T04:09:54.769Z,98.94
2023-02-11T04:12:21.535Z,98.75
2023-02-11T04:14:47.949Z,98.75
2023-02-11T04:17:14.401Z,98.80
2023-02-11T04:19:41.064Z,99.42
2023-02-11T04:22:07.968Z,99.16
2023-02-11T04:24:34.626Z,99.30
2023-02-11T04:27:01.280Z,99.22
2023-02-11T04:29:28.297Z,99.21
2023-02-11T04:31:55.686Z,99.31
2023-02-11T04:34:24.509Z,99.52
2023-02-11T04:36:51.151Z,99.61
2023-02-11T04:39:17.672Z,99.80
2023-02-11T04:41:44.205Z,99.52
2023-02-11T04:44:11.142Z,100.00
2023-02-11T04:46:37.736Z,99.74
2023-02-11T04:49:04.422Z,99.89
2023-02-11T04:51:31.735Z,100.00
2023-02-11T04:53:58.165Z,100.00
2023-02-11T04:56:24.639Z,99.86
2023-02-11T04:58:51.168Z,100.00
2023-02-11T05:01:17.675Z,99.97
2023-02-11T05:03:44.397Z,100.00
2023-02-11T05:06:11.480Z,99.65
2023-02-11T05:08:38.032Z,99.56
2023-02-11T05:11:04.872Z,99.89
2023-02-11T05:13:32.052Z,99.84
2023-02-11T05:15:58.532Z,100.00
2023-02-11T05:18:25.022Z,100.00
2023-02-11T05:20:51.691Z,99.90
2023-02-11T05:23:18.112Z,100.00
2023-02-11T05:25:44.509Z,100.00
2023-02-11T05:28:10.932Z,99.69
2023-02-11T05:30:37.461Z,99.91
2023-02-11T05:33:04.028Z,99.94
2023-02-11T05:35:30.469Z,99.74
2023-02-11T05:37:57.042Z,99.63
2023-02-11T05:40:23.556Z,100.00
2023-02-11T05:42:50.064Z,100.00
2023-02-11T05:45:16.555Z,99.91
2023-02-11T05:47:43.043Z,100.00
2023-02-11T05:50:09.611Z,100.00
2023-02-11T05:52:36.391Z,99.90
2023-02-11T05:55:03.110Z,100.00
2023-02-11T05:57:29.548Z,100.00
2023-02-11T05:59:56.089Z,100.00
2023-02-11T06:02:22.726Z,100.00
2023-02-11T06:04:49.156Z,100.00
2023-02-11T06:07:15.794Z,100.00
2023-02-11T06:09:42.322Z,100.00
2023-02-11T06:12:08.816Z,100.00
2023-02-11T06:14:35.788Z,100.00
2023-02-11T06:17:02.178Z,100.00
2023-02-11T06:19:28.654Z,100.00
2023-02-11T06:21:56.428Z,100.00
2023-02-11T06:24:47.806Z,100.00
2023-02-11T06:27:09.833Z,100.00
2023-02-11T06:29:36.244Z,100.00
2023-02-11T06:32:02.833Z,100.00
2023-02-11T06:34:29.375Z,100.00
2023-02-11T06:36:55.797Z,100.00
2023-02-11T06:39:22.290Z,100.00
2023-02-11T06:41:49.048Z,100.00
2023-02-11T06:44:15.525Z,100.00
2023-02-11T06:46:41.984Z,100.00
2023-02-11T06:49:08.697Z,100.00
2023-02-11T06:51:35.142Z,100.00
2023-02-11T06:54:01.534Z,100.00
2023-02-11T06:56:28.004Z,100.00
2023-02-11T06:58:57.822Z,100.00
2023-02-11T07:01:25.936Z,100.00
2023-02-11T07:03:54.373Z,100.00
2023-02-11T07:06:23.262Z,100.00
2023-02-11T07:08:50.179Z,100.00
2023-02-11T07:11:27.766Z,100.00
2023-02-11T07:13:56.447Z,100.00
2023-02-11T07:16:23.402Z,100.00
2023-02-11T07:18:50.055Z,100.00
2023-02-11T07:21:20.716Z,100.00
2023-02-11T07:23:48.433Z,100.00
2023-02-11T07:26:18.117Z,100.00
2023-02-11T07:28:45.299Z,100.00
2023-02-11T07:31:22.004Z,100.00
2023-02-11T07:33:49.096Z,100.00
2023-02-11T07:36:16.602Z,100.00
2023-02-11T07:38:43.435Z,100.00
2023-02-11T07:41:11.785Z,100.00
2023-02-11T07:43:39.582Z,100.00
2023-02-11T07:46:13.085Z,100.00
2023-02-11T07:48:40.023Z,100.00
2023-02-11T07:51:09.814Z,100.00
2023-02-11T07:53:36.833Z,100.00
2023-02-11T07:56:08.417Z,100.00
2023-02-11T07:58:35.309Z,100.00
2023-02-11T08:01:08.043Z,100.00
2023-02-11T08:03:35.488Z,100.00
2023-02-11T08:06:06.739Z,100.00
2023-02-11T08:08:33.141Z,100.00
2023-02-11T08:11:05.125Z,100.00
2023-02-11T08:13:31.561Z,100.00
2023-02-11T08:15:58.032Z,100.00
2023-02-11T08:18:24.465Z,100.00
2023-02-11T08:20:51.139Z,100.00
2023-02-11T08:23:17.684Z,100.00
2023-02-11T08:25:44.250Z,100.00
2023-02-11T08:28:10.747Z,100.00
2023-02-11T08:30:37.189Z,99.98
2023-02-11T08:33:03.773Z,99.97
2023-02-11T08:35:30.193Z,100.00
2023-02-11T08:37:56.549Z,99.85
2023-02-11T08:40:23.136Z,99.80
2023-02-11T08:42:49.604Z,100.00
2023-02-11T08:45:16.037Z,99.70
2023-02-11T08:47:42.429Z,99.72
2023-02-11T08:50:09.386Z,99.89
2023-02-11T08:52:36.421Z,99.55
2023-02-11T08:55:02.973Z,99.27
2023-02-11T08:57:29.552Z,99.52
2023-02-11T08:59:55.932Z,99.35
2023-02-11T09:02:22.504Z,98.99
2023-02-11T09:04:49.030Z,98.83
2023-02-11T09:07:15.518Z,98.59
2023-02-11T09:09:42.024Z,98.49
2023-02-11T09:12:08.493Z,98.09
2023-02-11T09:14:35.150Z,98.15
2023-02-11T09:17:01.812Z,98.26
2023-02-11T09:19:28.454Z,97.89
2023-02-11T09:21:54.879Z,97.82
2023-02-11T09:24:21.349Z,97.26
2023-02-11T09:26:47.823Z,97.15
2023-02-11T09:29:14.301Z,96.86
2023-02-11T09:31:40.846Z,96.67
2023-02-11T09:34:07.513Z,96.12
2023-02-11T09:36:40.073Z,96.21
2023-02-11T09:39:11.321Z,96.36
2023-02-11T09:42:02.952Z,95.91
2023-02-11T09:44:33.368Z,95.92
2023-02-11T09:47:07.330Z,95.40
2023-02-11T09:49:40.852Z,95.29
2023-02-11T09:52:36.928Z,94.89
2023-02-11T09:55:11.325Z,94.58
2023-02-11T09:57:37.865Z,94.25
2023-02-11T10:00:17.020Z,93.90
2023-02-11T10:03:00.848Z,93.72
2023-02-11T10:05:48.813Z,92.79
2023-02-11T10:08:27.397Z,92.88
2023-02-11T10:11:22.631Z,92.06
2023-02-11T10:14:09.455Z,91.74
2023-02-11T10:16:55.763Z,91.38
2023-02-11T10:19:38.743Z,90.86
2023-02-11T10:22:28.451Z,89.82
2023-02-11T10:25:00.447Z,89.39
2023-02-11T10:27:31.962Z,88.51
2023-02-11T10:30:19.304Z,86.50
2023-02-11T10:32:53.972Z,85.78
2023-02-11T10:35:24.753Z,84.68
2023-02-11T10:37:51.165Z,84.87
2023-02-11T10:40:21.389Z,84.22
2023-02-11T10:42:52.456Z,84.30
2023-02-11T10:45:32.285Z,83.81
2023-02-11T10:47:59.726Z,84.14
2023-02-11T10:50:29.671Z,83.85
2023-02-11T10:53:20.664Z,83.77
2023-02-11T10:55:55.790Z,84.61
2023-02-11T10:58:29.159Z,84.33
2023-02-11T11:00:58.355Z,84.50
2023-02-11T11:03:27.613Z,84.25
2023-02-11T11:06:06.484Z,83.73
2023-02-11T11:08:45.633Z,83.96
2023-02-11T11:11:18.388Z,83.13
2023-02-11T11:13:53.833Z,82.88
2023-02-11T11:16:32.327Z,81.80
2023-02-11T11:19:07.834Z,81.24
2023-02-11T11:21:42.012Z,80.95
2023-02-11T11:24:27.915Z,81.54
2023-02-11T11:26:56.999Z,81.29
2023-02-11T11:29:35.611Z,79.83
2023-02-11T11:32:05.861Z,80.06
2023-02-11T11:35:03.948Z,79.90
2023-02-11T11:37:36.399Z,80.67
2023-02-11T11:40:22.502Z,81.83
2023-02-11T11:43:02.697Z,81.80
2023-02-11T11:45:29.228Z,80.93
2023-02-11T11:48:12.758Z,80.34
2023-02-11T11:50:47.216Z,81.32
2023-02-11T11:53:23.487Z,81.40
2023-02-11T11:56:14.598Z,80.86
2023-02-11T11:58:41.616Z,81.58
2023-02-11T12:01:34.759Z,80.55
2023-02-11T12:04:29.390Z,81.62
2023-02-11T12:07:02.225Z,80.61
2023-02-11T12:09:43.091Z,81.68
2023-02-11T12:12:26.721Z,80.90
2023-02-11T12:15:02.436Z,80.45
2023-02-11T12:17:52.577Z,80.00
2023-02-11T12:20:40.471Z,80.96
2023-02-11T12:23:34.618Z,81.09
2023-02-11T12:26:01.108Z,81.39
2023-02-11T12:29:08.482Z,80.88
2023-02-11T12:31:37.849Z,81.09
2023-02-11T12:34:34.151Z,80.26
2023-02-11T12:37:18.781Z,79.81
2023-02-11T12:40:03.402Z,79.95
2023-02-11T12:43:17.371Z,79.72
2023-02-11T12:46:01.247Z,80.09
2023-02-11T12:48:57.098Z,80.65
2023-02-11T12:51:48.445Z,80.78
2023-02-11T16:32:30.622Z,84.70
2023-02-11T16:35:00.897Z,85.04
2023-02-11T16:37:28.515Z,84.76
2023-02-11T16:39:58.174Z,84.30
2023-02-11T16:42:24.767Z,85.00
2023-02-11T16:44:51.397Z,85.04
2023-02-11T16:47:25.966Z,85.05
2023-02-11T16:49:53.117Z,84.94
2023-02-11T16:52:21.069Z,85.29
2023-02-11T16:54:47.585Z,85.38
2023-02-11T16:57:17.174Z,85.48
2023-02-11T16:59:44.694Z,85.16
2023-02-11T17:02:25.170Z,86.23
2023-02-11T17:04:53.909Z,85.65
2023-02-11T17:07:20.781Z,85.91
2023-02-11T17:09:47.314Z,85.99
2023-02-11T17:12:13.823Z,86.21
2023-02-11T17:14:40.745Z,86.62
2023-02-11T17:17:07.973Z,86.81
2023-02-11T17:19:34.534Z,86.60
2023-02-11T17:22:01.149Z,87.36
2023-02-11T17:24:27.965Z,86.66
2023-02-11T17:26:54.941Z,86.89
2023-02-11T17:29:24.152Z,87.31
2023-02-11T17:31:52.188Z,87.73
2023-02-11T17:34:20.154Z,87.28
2023-02-11T17:36:46.903Z,87.46
2023-02-11T17:39:14.077Z,87.78
2023-02-11T17:41:41.400Z,87.56
2023-02-11T17:44:09.068Z,87.55
2023-02-11T17:46:36.270Z,88.08
2023-02-11T17:49:12.299Z,87.74
2023-02-11T17:51:39.816Z,88.59
2023-02-11T17:54:12.765Z,88.15
2023-02-11T17:56:39.742Z,88.34
2023-02-11T17:59:08.360Z,88.47
2023-02-11T18:01:36.690Z,88.94
2023-02-11T18:04:04.693Z,88.51
2023-02-11T18:06:31.667Z,88.84
2023-02-11T18:08:59.821Z,88.85
2023-02-11T18:11:27.973Z,89.19
2023-02-11T18:13:54.618Z,88.86
2023-02-11T18:16:22.423Z,89.14
2023-02-11T18:18:49.881Z,89.03
2023-02-11T18:21:19.496Z,89.08
2023-02-11T18:23:47.006Z,89.32
2023-02-11T18:26:16.240Z,89.49
2023-02-11T18:28:45.727Z,89.34
2023-02-11T18:31:14.276Z,89.48
2023-02-11T18:33:42.231Z,89.51
2023-02-11T18:36:11.685Z,89.79
2023-02-11T18:38:38.877Z,89.71
2023-02-11T18:41:05.354Z,89.83
2023-02-11T18:43:33.812Z,89.64
2023-02-11T18:46:02.147Z,89.52
2023-02-11T18:48:29.180Z,89.76
2023-02-11T18:50:56.198Z,89.85
2023-02-11T18:53:24.510Z,89.82
2023-02-11T18:55:52.338Z,89.68
2023-02-11T18:58:19.009Z,89.55
2023-02-11T19:00:47.069Z,89.44
2023-02-11T19:03:13.944Z,89.51
2023-02-11T19:05:49.337Z,89.37
2023-02-11T19:08:17.167Z,89.58
2023-02-11T19:10:46.768Z,89.63
2023-02-11T19:13:14.479Z,89.94
2023-02-11T19:15:45.282Z,89.85
2023-02-11T19:18:13.742Z,90.02
2023-02-11T19:20:42.497Z,89.91
2023-02-11T19:23:09.905Z,89.67
2023-02-11T19:25:37.193Z,90.07
2023-02-11T19:28:04.157Z,89.88
2023-02-11T19:30:30.768Z,89.79
2023-02-11T19:32:57.831Z,90.03
2023-02-11T19:35:25.291Z,89.82
2023-02-11T19:37:51.944Z,90.01
2023-02-11T19:40:38.657Z,89.94
2023-02-11T19:43:05.125Z,90.11
2023-02-11T19:45:31.527Z,90.17
2023-02-11T19:47:58.063Z,89.91
2023-02-11T19:50:24.762Z,90.01
2023-02-11T19:52:51.445Z,89.82
2023-02-11T19:55:18.096Z,89.98
2023-02-11T19:57:44.685Z,90.29
2023-02-11T20:00:14.085Z,90.03
2023-02-11T20:02:40.867Z,89.87
2023-02-11T20:05:07.961Z,90.15
2023-02-11T20:07:37.211Z,90.31
2023-02-11T20:10:03.913Z,89.90
2023-02-11T20:12:30.423Z,89.98
2023-02-11T20:14:56.820Z,89.81
2023-02-11T20:17:23.406Z,89.85
2023-02-11T20:19:49.866Z,90.16
2023-02-11T20:22:16.443Z,89.97
2023-02-11T20:24:42.933Z,90.08
2023-02-11T20:27:11.511Z,90.09
2023-02-11T20:29:39.162Z,90.25
2023-02-11T20:32:06.786Z,90.10
2023-02-11T20:34:35.767Z,90.27
2023-02-11T20:37:04.265Z,90.12
2023-02-11T20:39:30.719Z,90.25
2023-02-11T20:42:22.037Z,90.42
2023-02-11T20:44:48.543Z,90.26
2023-02-11T20:47:15.105Z,90.41
2023-02-11T20:49:41.659Z,90.40
2023-02-11T20:52:08.294Z,90.65
2023-02-11T20:54:34.872Z,90.31
2023-02-11T20:57:01.682Z,90.17
2023-02-11T20:59:28.168Z,90.21
2023-02-11T21:01:56.479Z,90.47
2023-02-11T21:04:29.389Z,90.44
2023-02-11T21:06:58.683Z,90.39
2023-02-11T21:09:28.772Z,90.11
2023-02-11T21:11:55.881Z,90.39
2023-02-11T21:14:24.044Z,90.43
2023-02-11T21:16:51.152Z,90.44
2023-02-11T21:19:17.889Z,90.33
2023-02-11T21:21:44.850Z,90.77
2023-02-11T21:24:12.380Z,90.79
2023-02-11T21:26:39.415Z,90.49
2023-02-11T21:29:07.143Z,90.53
2023-02-11T21:31:35.269Z,90.39
2023-02-11T21:34:02.372Z,91.05
2023-02-11T21:36:29.777Z,90.85
2023-02-11T21:38:56.427Z,91.14
2023-02-11T21:41:23.245Z,90.69
2023-02-11T21:43:50.249Z,90.57
2023-02-11T21:46:19.052Z,90.77
2023-02-11T21:48:45.998Z,90.77
2023-02-11T21:51:22.071Z,91.16
2023-02-11T21:53:53.338Z,90.79
2023-02-11T21:56:19.976Z,90.33
2023-02-11T21:58:46.832Z,90.54
2023-02-11T22:01:19.005Z,91.09
2023-02-11T22:03:46.811Z,91.20
2023-02-11T22:06:16.532Z,90.88
2023-02-11T22:08:43.303Z,90.66
2023-02-11T22:11:12.817Z,90.76
2023-02-11T22:13:40.355Z,91.31
2023-02-11T22:16:09.696Z,90.96
2023-02-11T22:18:36.223Z,91.06
2023-02-11T22:21:09.445Z,91.14
2023-02-11T22:23:36.839Z,91.15
2023-02-11T22:26:06.002Z,91.37
2023-02-11T22:28:32.817Z,91.11
2023-02-11T22:31:01.283Z,91.41
2023-02-11T22:33:28.774Z,91.27
2023-02-11T22:36:04.310Z,91.33
2023-02-11T22:38:32.120Z,91.82
2023-02-11T22:41:00.978Z,91.43
2023-02-11T22:43:28.114Z,91.40
2023-02-11T22:45:56.571Z,91.79
2023-02-11T22:48:23.364Z,91.53
2023-02-11T22:50:49.976Z,91.54
2023-02-11T22:53:16.392Z,91.85
2023-02-11T22:55:43.150Z,91.43
2023-02-11T22:58:09.592Z,91.67
2023-02-11T23:00:39.625Z,91.58
2023-02-11T23:03:07.711Z,91.75
2023-02-11T23:05:39.289Z,91.87
2023-02-11T23:08:07.807Z,91.81
2023-02-11T23:10:36.365Z,91.34
2023-02-11T23:13:05.059Z,91.55
2023-02-11T23:15:32.030Z,92.00
2023-02-11T23:17:59.181Z,91.88
2023-02-11T23:20:25.885Z,92.10
2023-02-11T23:22:52.532Z,91.68
2023-02-11T23:25:19.141Z,91.79
2023-02-11T23:27:45.742Z,91.60
2023-02-11T23:30:12.770Z,91.98
2023-02-11T23:32:39.452Z,91.74
2023-02-11T23:35:06.325Z,91.78
2023-02-11T23:37:32.840Z,91.84
2023-02-11T23:39:59.229Z,91.79
2023-02-11T23:42:25.846Z,92.06
2023-02-11T23:44:52.354Z,91.82
2023-02-11T23:47:18.759Z,91.92
2023-02-11T23:49:45.177Z,91.79
2023-02-11T23:52:11.762Z,91.92
2023-02-11T23:54:55.206Z,91.91
2023-02-11T23:57:21.671Z,91.95
2023-02-11T23:59:51.264Z,92.10
